sensor_id;sensor_type;location;lat;lon;timestamp;P1;durP1;ratioP1;P2;durP2;ratioP2
65552;SDS011;52465;51.560;14.368;2023-06-14T00:01:36;4.25;;;4.05;;
65552;SDS011;52465;51.560;14.368;2023-06-14T00:04:03;4.15;;;3.85;;
65552;SDS011;52465;51.560;14.368;2023-06-14T00:06:29;4.00;;;3.80;;
65552;SDS011;52465;51.560;14.368;2023-06-14T00:08:55;4.07;;;3.88;;
65552;SDS011;52465;51.560;14.368;2023-06-14T00:11:21;4.20;;;3.90;;
65552;SDS011;52465;51.560;14.368;2023-06-14T00:13:46;4.03;;;3.83;;
65552;SDS011;52465;51.560;14.368;2023-06-14T00:16:11;4.13;;;3.78;;
65552;SDS011;52465;51.560;14.368;2023-06-14T00:18:37;4.30;;;4.00;;
65552;SDS011;52465;51.560;14.368;2023-06-14T00:21:03;3.90;;;3.70;;
65552;SDS011;52465;51.560;14.368;2023-06-14T00:23:29;4.30;;;4.00;;
65552;SDS011;52465;51.560;14.368;2023-06-14T00:25:55;4.32;;;4.00;;
65552;SDS011;52465;51.560;14.368;2023-06-14T00:28:20;4.13;;;3.83;;
65552;SDS011;52465;51.560;14.368;2023-06-14T00:30:45;4.13;;;3.92;;
65552;SDS011;52465;51.560;14.368;2023-06-14T00:33:11;4.10;;;3.90;;
65552;SDS011;52465;51.560;14.368;2023-06-14T00:35:37;4.10;;;3.90;;
65552;SDS011;52465;51.560;14.368;2023-06-14T00:38:02;4.10;;;3.90;;
65552;SDS011;52465;51.560;14.368;2023-06-14T00:40:28;4.25;;;3.95;;
65552;SDS011;52465;51.560;14.368;2023-06-14T00:42:53;4.07;;;3.78;;
65552;SDS011;52465;51.560;14.368;2023-06-14T00:45:19;4.03;;;3.83;;
65552;SDS011;52465;51.560;14.368;2023-06-14T00:47:45;3.95;;;3.75;;
65552;SDS011;52465;51.560;14.368;2023-06-14T00:50:11;4.03;;;3.72;;
65552;SDS011;52465;51.560;14.368;2023-06-14T00:52:36;4.07;;;3.78;;
65552;SDS011;52465;51.560;14.368;2023-06-14T00:55:02;3.80;;;3.60;;
65552;SDS011;52465;51.560;14.368;2023-06-14T00:57:28;4.10;;;3.90;;
65552;SDS011;52465;51.560;14.368;2023-06-14T00:59:57;3.88;;;3.67;;
65552;SDS011;52465;51.560;14.368;2023-06-14T01:02:22;4.50;;;4.20;;
65552;SDS011;52465;51.560;14.368;2023-06-14T01:04:49;4.20;;;3.90;;
65552;SDS011;52465;51.560;14.368;2023-06-14T01:14:12;3.88;;;3.67;;
65552;SDS011;52465;51.560;14.368;2023-06-14T01:16:38;4.07;;;3.80;;
65552;SDS011;52465;51.560;14.368;2023-06-14T01:19:04;4.10;;;3.90;;
65552;SDS011;52465;51.560;14.368;2023-06-14T01:21:30;4.00;;;3.80;;
65552;SDS011;52465;51.560;14.368;2023-06-14T01:25:45;3.83;;;3.63;;
65552;SDS011;52465;51.560;14.368;2023-06-14T01:28:12;4.40;;;4.10;;
65552;SDS011;52465;51.560;14.368;2023-06-14T01:30:40;4.10;;;3.90;;
65552;SDS011;52465;51.560;14.368;2023-06-14T01:33:13;4.13;;;3.83;;
65552;SDS011;52465;51.560;14.368;2023-06-14T01:35:43;4.07;;;3.88;;
65552;SDS011;52465;51.560;14.368;2023-06-14T01:38:09;3.88;;;3.67;;
65552;SDS011;52465;51.560;14.368;2023-06-14T01:40:35;4.40;;;4.10;;
65552;SDS011;52465;51.560;14.368;2023-06-14T01:43:01;4.07;;;3.88;;
65552;SDS011;52465;51.560;14.368;2023-06-14T01:47:14;3.95;;;3.75;;
65552;SDS011;52465;51.560;14.368;2023-06-14T01:49:39;4.00;;;3.80;;
65552;SDS011;52465;51.560;14.368;2023-06-14T01:52:05;4.10;;;3.90;;
65552;SDS011;52465;51.560;14.368;2023-06-14T01:54:31;3.90;;;3.70;;
65552;SDS011;52465;51.560;14.368;2023-06-14T01:56:56;3.90;;;3.70;;
65552;SDS011;52465;51.560;14.368;2023-06-14T01:59:22;4.30;;;4.00;;
65552;SDS011;52465;51.560;14.368;2023-06-14T02:01:47;3.95;;;3.75;;
65552;SDS011;52465;51.560;14.368;2023-06-14T02:04:13;3.92;;;3.72;;
65552;SDS011;52465;51.560;14.368;2023-06-14T02:06:38;4.00;;;3.80;;
65552;SDS011;52465;51.560;14.368;2023-06-14T02:09:03;4.03;;;3.83;;
65552;SDS011;52465;51.560;14.368;2023-06-14T02:11:29;4.30;;;4.00;;
65552;SDS011;52465;51.560;14.368;2023-06-14T02:13:54;3.97;;;3.78;;
65552;SDS011;52465;51.560;14.368;2023-06-14T02:16:20;4.20;;;4.00;;
65552;SDS011;52465;51.560;14.368;2023-06-14T02:18:47;4.25;;;3.95;;
65552;SDS011;52465;51.560;14.368;2023-06-14T02:21:13;3.90;;;3.70;;
65552;SDS011;52465;51.560;14.368;2023-06-14T02:23:38;3.95;;;3.75;;
65552;SDS011;52465;51.560;14.368;2023-06-14T02:26:04;4.03;;;3.83;;
65552;SDS011;52465;51.560;14.368;2023-06-14T02:28:30;4.22;;;4.03;;
65552;SDS011;52465;51.560;14.368;2023-06-14T02:30:55;4.05;;;3.80;;
65552;SDS011;52465;51.560;14.368;2023-06-14T02:33:21;4.03;;;3.83;;
65552;SDS011;52465;51.560;14.368;2023-06-14T02:35:47;4.22;;;4.00;;
65552;SDS011;52465;51.560;14.368;2023-06-14T02:38:12;4.40;;;4.10;;
65552;SDS011;52465;51.560;14.368;2023-06-14T02:40:37;4.22;;;3.92;;
65552;SDS011;52465;51.560;14.368;2023-06-14T02:43:03;4.18;;;3.88;;
65552;SDS011;52465;51.560;14.368;2023-06-14T02:45:28;3.85;;;3.65;;
65552;SDS011;52465;51.560;14.368;2023-06-14T02:47:53;3.92;;;3.72;;
65552;SDS011;52465;51.560;14.368;2023-06-14T02:50:20;3.88;;;3.67;;
65552;SDS011;52465;51.560;14.368;2023-06-14T02:52:46;4.07;;;3.83;;
65552;SDS011;52465;51.560;14.368;2023-06-14T02:55:12;3.95;;;3.75;;
65552;SDS011;52465;51.560;14.368;2023-06-14T02:57:37;4.15;;;3.95;;
65552;SDS011;52465;51.560;14.368;2023-06-14T03:00:03;4.18;;;3.88;;
65552;SDS011;52465;51.560;14.368;2023-06-14T03:02:30;4.10;;;3.90;;
65552;SDS011;52465;51.560;14.368;2023-06-14T03:04:55;4.32;;;4.03;;
65552;SDS011;52465;51.560;14.368;2023-06-14T03:07:21;4.35;;;4.05;;
65552;SDS011;52465;51.560;14.368;2023-06-14T03:09:48;4.32;;;4.13;;
65552;SDS011;52465;51.560;14.368;2023-06-14T03:12:13;4.30;;;4.00;;
65552;SDS011;52465;51.560;14.368;2023-06-14T03:14:40;4.10;;;3.90;;
65552;SDS011;52465;51.560;14.368;2023-06-14T03:17:05;4.03;;;3.83;;
65552;SDS011;52465;51.560;14.368;2023-06-14T03:19:30;4.20;;;4.00;;
65552;SDS011;52465;51.560;14.368;2023-06-14T03:21:56;4.13;;;3.92;;
65552;SDS011;52465;51.560;14.368;2023-06-14T03:24:24;4.20;;;4.00;;
65552;SDS011;52465;51.560;14.368;2023-06-14T03:26:53;4.25;;;3.95;;
65552;SDS011;52465;51.560;14.368;2023-06-14T03:29:19;4.05;;;3.85;;
65552;SDS011;52465;51.560;14.368;2023-06-14T03:34:46;4.25;;;4.05;;
65552;SDS011;52465;51.560;14.368;2023-06-14T03:37:11;4.20;;;4.00;;
65552;SDS011;52465;51.560;14.368;2023-06-14T03:39:37;4.03;;;3.83;;
65552;SDS011;52465;51.560;14.368;2023-06-14T03:42:03;4.07;;;3.88;;
65552;SDS011;52465;51.560;14.368;2023-06-14T03:44:28;4.20;;;4.00;;
65552;SDS011;52465;51.560;14.368;2023-06-14T03:46:54;4.13;;;3.92;;
65552;SDS011;52465;51.560;14.368;2023-06-14T03:49:19;4.30;;;4.00;;
65552;SDS011;52465;51.560;14.368;2023-06-14T03:51:44;4.53;;;4.22;;
65552;SDS011;52465;51.560;14.368;2023-06-14T03:54:10;4.10;;;3.90;;
65552;SDS011;52465;51.560;14.368;2023-06-14T03:56:36;4.20;;;4.00;;
65552;SDS011;52465;51.560;14.368;2023-06-14T03:59:01;4.22;;;4.03;;
65552;SDS011;52465;51.560;14.368;2023-06-14T04:01:27;4.15;;;3.95;;
65552;SDS011;52465;51.560;14.368;2023-06-14T04:03:55;4.10;;;3.90;;
65552;SDS011;52465;51.560;14.368;2023-06-14T04:06:22;4.40;;;4.10;;
65552;SDS011;52465;51.560;14.368;2023-06-14T04:08:50;4.22;;;4.00;;
65552;SDS011;52465;51.560;14.368;2023-06-14T04:11:17;4.05;;;3.80;;
65552;SDS011;52465;51.560;14.368;2023-06-14T04:13:42;4.00;;;3.80;;
65552;SDS011;52465;51.560;14.368;2023-06-14T04:16:08;4.20;;;4.00;;
65552;SDS011;52465;51.560;14.368;2023-06-14T04:18:33;4.13;;;3.92;;
65552;SDS011;52465;51.560;14.368;2023-06-14T04:20:58;4.35;;;4.15;;
65552;SDS011;52465;51.560;14.368;2023-06-14T04:23:24;4.00;;;3.80;;
65552;SDS011;52465;51.560;14.368;2023-06-14T04:25:49;4.43;;;4.20;;
65552;SDS011;52465;51.560;14.368;2023-06-14T04:28:15;4.35;;;4.05;;
65552;SDS011;52465;51.560;14.368;2023-06-14T04:30:44;3.90;;;3.70;;
65552;SDS011;52465;51.560;14.368;2023-06-14T04:33:10;4.20;;;3.90;;
65552;SDS011;52465;51.560;14.368;2023-06-14T04:35:35;4.00;;;3.80;;
65552;SDS011;52465;51.560;14.368;2023-06-14T04:38:02;4.20;;;4.00;;
65552;SDS011;52465;51.560;14.368;2023-06-14T04:40:30;4.25;;;3.95;;
65552;SDS011;52465;51.560;14.368;2023-06-14T04:42:55;4.68;;;4.40;;
65552;SDS011;52465;51.560;14.368;2023-06-14T04:45:22;4.60;;;4.30;;
65552;SDS011;52465;51.560;14.368;2023-06-14T04:47:48;4.30;;;4.00;;
65552;SDS011;52465;51.560;14.368;2023-06-14T04:52:20;4.05;;;3.85;;
65552;SDS011;52465;51.560;14.368;2023-06-14T04:54:46;4.20;;;4.00;;
65552;SDS011;52465;51.560;14.368;2023-06-14T04:57:12;4.38;;;4.13;;
65552;SDS011;52465;51.560;14.368;2023-06-14T04:59:39;4.70;;;4.40;;
65552;SDS011;52465;51.560;14.368;2023-06-14T05:02:05;4.57;;;4.20;;
65552;SDS011;52465;51.560;14.368;2023-06-14T05:04:31;4.45;;;4.25;;
65552;SDS011;52465;51.560;14.368;2023-06-14T05:06:57;4.50;;;4.20;;
65552;SDS011;52465;51.560;14.368;2023-06-14T05:09:22;4.72;;;4.40;;
65552;SDS011;52465;51.560;14.368;2023-06-14T05:11:48;4.50;;;4.20;;
65552;SDS011;52465;51.560;14.368;2023-06-14T05:14:13;4.72;;;4.38;;
65552;SDS011;52465;51.560;14.368;2023-06-14T05:16:39;4.63;;;4.32;;
65552;SDS011;52465;51.560;14.368;2023-06-14T05:19:05;4.32;;;4.13;;
65552;SDS011;52465;51.560;14.368;2023-06-14T05:21:31;4.55;;;4.28;;
65552;SDS011;52465;51.560;14.368;2023-06-14T05:23:58;6.45;;;5.90;;
65552;SDS011;52465;51.560;14.368;2023-06-14T05:26:24;5.90;;;5.40;;
65552;SDS011;52465;51.560;14.368;2023-06-14T05:28:53;6.10;;;5.60;;
65552;SDS011;52465;51.560;14.368;2023-06-14T05:31:25;6.05;;;5.55;;
65552;SDS011;52465;51.560;14.368;2023-06-14T05:36:00;5.95;;;5.13;;
65552;SDS011;52465;51.560;14.368;2023-06-14T05:38:26;6.07;;;5.57;;
65552;SDS011;52465;51.560;14.368;2023-06-14T05:40:51;5.75;;;5.25;;
65552;SDS011;52465;51.560;14.368;2023-06-14T05:43:16;5.63;;;5.18;;
65552;SDS011;52465;51.560;14.368;2023-06-14T05:45:42;6.50;;;6.00;;
65552;SDS011;52465;51.560;14.368;2023-06-14T05:48:07;6.40;;;5.90;;
65552;SDS011;52465;51.560;14.368;2023-06-14T05:50:32;6.20;;;5.80;;
65552;SDS011;52465;51.560;14.368;2023-06-14T05:52:58;6.13;;;5.63;;
65552;SDS011;52465;51.560;14.368;2023-06-14T05:55:24;6.25;;;5.82;;
65552;SDS011;52465;51.560;14.368;2023-06-14T05:57:50;5.50;;;5.10;;
65552;SDS011;52465;51.560;14.368;2023-06-14T06:00:15;6.70;;;6.20;;
65552;SDS011;52465;51.560;14.368;2023-06-14T06:02:41;6.07;;;5.57;;
65552;SDS011;52465;51.560;14.368;2023-06-14T06:05:11;5.87;;;5.47;;
65552;SDS011;52465;51.560;14.368;2023-06-14T06:07:37;5.88;;;5.38;;
65552;SDS011;52465;51.560;14.368;2023-06-14T06:10:04;6.00;;;5.50;;
65552;SDS011;52465;51.560;14.368;2023-06-14T06:12:30;5.90;;;5.40;;
65552;SDS011;52465;51.560;14.368;2023-06-14T06:14:56;6.03;;;5.57;;
65552;SDS011;52465;51.560;14.368;2023-06-14T06:17:22;5.80;;;5.30;;
65552;SDS011;52465;51.560;14.368;2023-06-14T06:19:47;5.72;;;5.22;;
65552;SDS011;52465;51.560;14.368;2023-06-14T06:22:13;5.53;;;5.13;;
65552;SDS011;52465;51.560;14.368;2023-06-14T06:24:38;5.45;;;5.05;;
65552;SDS011;52465;51.560;14.368;2023-06-14T06:27:04;6.15;;;5.65;;
65552;SDS011;52465;51.560;14.368;2023-06-14T06:29:29;5.85;;;5.35;;
65552;SDS011;52465;51.560;14.368;2023-06-14T06:31:54;5.32;;;5.00;;
65552;SDS011;52465;51.560;14.368;2023-06-14T06:34:21;5.70;;;5.30;;
65552;SDS011;52465;51.560;14.368;2023-06-14T06:36:46;5.10;;;4.68;;
65552;SDS011;52465;51.560;14.368;2023-06-14T06:39:11;5.30;;;4.97;;
65552;SDS011;52465;51.560;14.368;2023-06-14T06:41:37;5.50;;;5.10;;
65552;SDS011;52465;51.560;14.368;2023-06-14T06:44:04;5.22;;;4.82;;
65552;SDS011;52465;51.560;14.368;2023-06-14T06:46:34;5.60;;;5.13;;
65552;SDS011;52465;51.560;14.368;2023-06-14T06:49:00;5.57;;;5.07;;
65552;SDS011;52465;51.560;14.368;2023-06-14T06:51:25;5.47;;;5.07;;
65552;SDS011;52465;51.560;14.368;2023-06-14T06:53:54;5.32;;;4.93;;
65552;SDS011;52465;51.560;14.368;2023-06-14T06:56:20;5.10;;;4.80;;
65552;SDS011;52465;51.560;14.368;2023-06-14T06:58:49;5.20;;;4.85;;
65552;SDS011;52465;51.560;14.368;2023-06-14T07:01:17;4.95;;;4.65;;
65552;SDS011;52465;51.560;14.368;2023-06-14T07:03:44;5.35;;;4.97;;
65552;SDS011;52465;51.560;14.368;2023-06-14T07:06:10;5.32;;;4.82;;
65552;SDS011;52465;51.560;14.368;2023-06-14T07:08:35;5.20;;;4.70;;
65552;SDS011;52465;51.560;14.368;2023-06-14T07:11:00;5.50;;;5.10;;
65552;SDS011;52465;51.560;14.368;2023-06-14T07:13:27;5.18;;;4.78;;
65552;SDS011;52465;51.560;14.368;2023-06-14T07:15:54;4.80;;;4.50;;
65552;SDS011;52465;51.560;14.368;2023-06-14T07:18:20;5.00;;;4.70;;
65552;SDS011;52465;51.560;14.368;2023-06-14T07:20:45;5.25;;;4.88;;
65552;SDS011;52465;51.560;14.368;2023-06-14T07:23:12;4.80;;;4.55;;
65552;SDS011;52465;51.560;14.368;2023-06-14T07:25:37;5.35;;;4.95;;
65552;SDS011;52465;51.560;14.368;2023-06-14T07:28:03;5.00;;;4.70;;
65552;SDS011;52465;51.560;14.368;2023-06-14T07:30:28;5.57;;;5.15;;
65552;SDS011;52465;51.560;14.368;2023-06-14T07:32:55;6.10;;;5.60;;
65552;SDS011;52465;51.560;14.368;2023-06-14T07:35:20;6.30;;;5.80;;
65552;SDS011;52465;51.560;14.368;2023-06-14T07:37:46;6.72;;;6.20;;
65552;SDS011;52465;51.560;14.368;2023-06-14T07:40:12;6.18;;;5.68;;
65552;SDS011;52465;51.560;14.368;2023-06-14T07:42:38;5.93;;;5.43;;
65552;SDS011;52465;51.560;14.368;2023-06-14T07:45:04;6.10;;;5.65;;
65552;SDS011;52465;51.560;14.368;2023-06-14T07:47:30;6.45;;;5.95;;
65552;SDS011;52465;51.560;14.368;2023-06-14T07:49:55;6.35;;;5.95;;
65552;SDS011;52465;51.560;14.368;2023-06-14T07:52:21;6.22;;;5.72;;
65552;SDS011;52465;51.560;14.368;2023-06-14T07:54:47;6.38;;;5.70;;
65552;SDS011;52465;51.560;14.368;2023-06-14T07:57:12;6.03;;;5.55;;
65552;SDS011;52465;51.560;14.368;2023-06-14T08:01:35;6.05;;;5.65;;
65552;SDS011;52465;51.560;14.368;2023-06-14T08:04:01;5.88;;;5.47;;
65552;SDS011;52465;51.560;14.368;2023-06-14T08:06:26;6.25;;;5.75;;
65552;SDS011;52465;51.560;14.368;2023-06-14T08:08:52;5.88;;;5.47;;
65552;SDS011;52465;51.560;14.368;2023-06-14T08:11:17;6.07;;;5.63;;
65552;SDS011;52465;51.560;14.368;2023-06-14T08:13:42;6.25;;;5.75;;
65552;SDS011;52465;51.560;14.368;2023-06-14T08:16:08;5.85;;;5.45;;
65552;SDS011;52465;51.560;14.368;2023-06-14T08:18:34;5.78;;;5.38;;
65552;SDS011;52465;51.560;14.368;2023-06-14T08:20:59;5.70;;;5.30;;
65552;SDS011;52465;51.560;14.368;2023-06-14T08:23:25;5.90;;;5.50;;
65552;SDS011;52465;51.560;14.368;2023-06-14T08:25:50;5.80;;;5.40;;
65552;SDS011;52465;51.560;14.368;2023-06-14T08:28:16;6.13;;;5.63;;
65552;SDS011;52465;51.560;14.368;2023-06-14T08:30:41;5.85;;;5.35;;
65552;SDS011;52465;51.560;14.368;2023-06-14T08:33:07;6.22;;;5.60;;
65552;SDS011;52465;51.560;14.368;2023-06-14T08:35:32;6.30;;;5.80;;
65552;SDS011;52465;51.560;14.368;2023-06-14T08:37:58;6.07;;;5.57;;
65552;SDS011;52465;51.560;14.368;2023-06-14T08:40:23;5.97;;;5.57;;
65552;SDS011;52465;51.560;14.368;2023-06-14T08:42:52;6.05;;;5.60;;
65552;SDS011;52465;51.560;14.368;2023-06-14T08:45:19;5.90;;;5.40;;
65552;SDS011;52465;51.560;14.368;2023-06-14T08:47:46;6.03;;;5.50;;
65552;SDS011;52465;51.560;14.368;2023-06-14T08:52:45;6.40;;;5.80;;
65552;SDS011;52465;51.560;14.368;2023-06-14T08:55:15;6.20;;;5.70;;
65552;SDS011;52465;51.560;14.368;2023-06-14T08:57:42;6.47;;;5.97;;
65552;SDS011;52465;51.560;14.368;2023-06-14T09:00:09;6.20;;;5.70;;
65552;SDS011;52465;51.560;14.368;2023-06-14T09:02:38;6.05;;;5.55;;
65552;SDS011;52465;51.560;14.368;2023-06-14T09:05:13;6.07;;;5.57;;
65552;SDS011;52465;51.560;14.368;2023-06-14T09:10:06;6.32;;;5.80;;
65552;SDS011;52465;51.560;14.368;2023-06-14T09:12:33;6.00;;;5.50;;
65552;SDS011;52465;51.560;14.368;2023-06-14T09:14:58;6.18;;;5.68;;
65552;SDS011;52465;51.560;14.368;2023-06-14T09:17:24;5.82;;;5.32;;
65552;SDS011;52465;51.560;14.368;2023-06-14T09:19:50;6.10;;;5.60;;
65552;SDS011;52465;51.560;14.368;2023-06-14T09:22:16;6.10;;;5.50;;
65552;SDS011;52465;51.560;14.368;2023-06-14T09:24:41;6.35;;;5.85;;
65552;SDS011;52465;51.560;14.368;2023-06-14T09:27:07;6.32;;;5.82;;
65552;SDS011;52465;51.560;14.368;2023-06-14T09:29:33;6.10;;;5.70;;
65552;SDS011;52465;51.560;14.368;2023-06-14T09:31:58;5.80;;;5.40;;
65552;SDS011;52465;51.560;14.368;2023-06-14T09:34:24;6.45;;;5.97;;
65552;SDS011;52465;51.560;14.368;2023-06-14T09:36:49;6.00;;;5.50;;
65552;SDS011;52465;51.560;14.368;2023-06-14T09:39:16;6.10;;;5.60;;
65552;SDS011;52465;51.560;14.368;2023-06-14T09:41:42;6.00;;;5.60;;
65552;SDS011;52465;51.560;14.368;2023-06-14T09:44:09;5.78;;;5.38;;
65552;SDS011;52465;51.560;14.368;2023-06-14T09:46:35;5.55;;;5.10;;
65552;SDS011;52465;51.560;14.368;2023-06-14T09:49:02;5.72;;;5.32;;
65552;SDS011;52465;51.560;14.368;2023-06-14T09:51:29;5.72;;;5.32;;
65552;SDS011;52465;51.560;14.368;2023-06-14T09:53:59;6.00;;;5.50;;
65552;SDS011;52465;51.560;14.368;2023-06-14T09:56:27;5.80;;;5.30;;
65552;SDS011;52465;51.560;14.368;2023-06-14T10:00:15;6.00;;;5.50;;
65552;SDS011;52465;51.560;14.368;2023-06-14T10:02:44;5.90;;;5.40;;
65552;SDS011;52465;51.560;14.368;2023-06-14T10:05:15;6.13;;;5.60;;
65552;SDS011;52465;51.560;14.368;2023-06-14T10:07:52;5.93;;;5.43;;
65552;SDS011;52465;51.560;14.368;2023-06-14T10:10:44;5.32;;;5.03;;
65552;SDS011;52465;51.560;14.368;2023-06-14T10:13:10;6.03;;;5.47;;
65552;SDS011;52465;51.560;14.368;2023-06-14T10:15:41;5.90;;;5.50;;
65552;SDS011;52465;51.560;14.368;2023-06-14T10:18:17;5.95;;;5.50;;
65552;SDS011;52465;51.560;14.368;2023-06-14T10:21:25;5.80;;;5.40;;
65552;SDS011;52465;51.560;14.368;2023-06-14T10:24:19;5.35;;;5.00;;
65552;SDS011;52465;51.560;14.368;2023-06-14T10:26:51;5.43;;;5.03;;
65552;SDS011;52465;51.560;14.368;2023-06-14T10:29:18;5.80;;;5.40;;
65552;SDS011;52465;51.560;14.368;2023-06-14T10:31:46;5.60;;;5.28;;
65552;SDS011;52465;51.560;14.368;2023-06-14T10:38:42;5.78;;;5.38;;
65552;SDS011;52465;51.560;14.368;2023-06-14T10:41:07;5.70;;;5.20;;
65552;SDS011;52465;51.560;14.368;2023-06-14T10:43:34;5.72;;;5.32;;
65552;SDS011;52465;51.560;14.368;2023-06-14T10:48:42;5.68;;;5.18;;
65552;SDS011;52465;51.560;14.368;2023-06-14T10:51:17;5.78;;;5.38;;
65552;SDS011;52465;51.560;14.368;2023-06-14T10:54:08;5.60;;;5.10;;
65552;SDS011;52465;51.560;14.368;2023-06-14T10:56:37;5.50;;;5.10;;
65552;SDS011;52465;51.560;14.368;2023-06-14T10:59:02;5.65;;;5.25;;
65552;SDS011;52465;51.560;14.368;2023-06-14T11:04:06;5.72;;;5.32;;
65552;SDS011;52465;51.560;14.368;2023-06-14T11:06:45;5.88;;;5.47;;
65552;SDS011;52465;51.560;14.368;2023-06-14T11:12:01;5.55;;;5.05;;
65552;SDS011;52465;51.560;14.368;2023-06-14T11:14:29;5.63;;;5.22;;
65552;SDS011;52465;51.560;14.368;2023-06-14T11:16:56;6.00;;;5.60;;
65552;SDS011;52465;51.560;14.368;2023-06-14T11:19:24;6.25;;;5.75;;
65552;SDS011;52465;51.560;14.368;2023-06-14T11:21:50;5.75;;;5.35;;
65552;SDS011;52465;51.560;14.368;2023-06-14T11:24:16;5.50;;;5.10;;
65552;SDS011;52465;51.560;14.368;2023-06-14T11:26:42;5.30;;;4.90;;
65552;SDS011;52465;51.560;14.368;2023-06-14T11:29:08;5.60;;;5.20;;
65552;SDS011;52465;51.560;14.368;2023-06-14T11:31:33;6.63;;;5.65;;
65552;SDS011;52465;51.560;14.368;2023-06-14T11:33:59;5.75;;;5.35;;
65552;SDS011;52465;51.560;14.368;2023-06-14T11:36:30;5.68;;;5.28;;
65552;SDS011;52465;51.560;14.368;2023-06-14T11:39:00;5.53;;;5.13;;
65552;SDS011;52465;51.560;14.368;2023-06-14T11:41:38;5.40;;;5.00;;
65552;SDS011;52465;51.560;14.368;2023-06-14T11:44:03;5.72;;;5.32;;
65552;SDS011;52465;51.560;14.368;2023-06-14T11:46:29;5.75;;;5.32;;
65552;SDS011;52465;51.560;14.368;2023-06-14T11:48:55;5.38;;;4.97;;
65552;SDS011;52465;51.560;14.368;2023-06-14T11:51:20;5.65;;;5.25;;
65552;SDS011;52465;51.560;14.368;2023-06-14T11:53:45;5.18;;;4.88;;
65552;SDS011;52465;51.560;14.368;2023-06-14T11:56:11;5.32;;;5.03;;
65552;SDS011;52465;51.560;14.368;2023-06-14T11:58:37;5.30;;;4.90;;
65552;SDS011;52465;51.560;14.368;2023-06-14T12:01:03;5.80;;;5.40;;
65552;SDS011;52465;51.560;14.368;2023-06-14T12:03:29;5.00;;;4.70;;
65552;SDS011;52465;51.560;14.368;2023-06-14T12:11:02;5.32;;;4.93;;
65552;SDS011;52465;51.560;14.368;2023-06-14T12:13:28;5.20;;;4.90;;
65552;SDS011;52465;51.560;14.368;2023-06-14T12:15:54;4.88;;;4.57;;
65552;SDS011;52465;51.560;14.368;2023-06-14T12:18:21;5.20;;;4.80;;
65552;SDS011;52465;51.560;14.368;2023-06-14T12:22:51;4.97;;;4.68;;
65552;SDS011;52465;51.560;14.368;2023-06-14T12:29:34;4.90;;;4.60;;
65552;SDS011;52465;51.560;14.368;2023-06-14T12:32:00;5.10;;;4.80;;
65552;SDS011;52465;51.560;14.368;2023-06-14T12:34:26;5.25;;;4.85;;
65552;SDS011;52465;51.560;14.368;2023-06-14T12:36:55;5.00;;;4.70;;
65552;SDS011;52465;51.560;14.368;2023-06-14T12:39:21;5.10;;;4.80;;
65552;SDS011;52465;51.560;14.368;2023-06-14T12:41:47;4.90;;;4.60;;
65552;SDS011;52465;51.560;14.368;2023-06-14T12:44:14;4.70;;;4.40;;
65552;SDS011;52465;51.560;14.368;2023-06-14T12:46:40;5.10;;;4.75;;
65552;SDS011;52465;51.560;14.368;2023-06-14T12:49:10;4.82;;;4.50;;
65552;SDS011;52465;51.560;14.368;2023-06-14T12:51:40;4.72;;;4.43;;
65552;SDS011;52465;51.560;14.368;2023-06-14T12:54:05;5.10;;;4.70;;
65552;SDS011;52465;51.560;14.368;2023-06-14T12:56:31;4.82;;;4.53;;
65552;SDS011;52465;51.560;14.368;2023-06-14T12:58:57;4.63;;;4.32;;
65552;SDS011;52465;51.560;14.368;2023-06-14T13:01:23;4.57;;;4.28;;
65552;SDS011;52465;51.560;14.368;2023-06-14T13:03:48;4.75;;;4.45;;
65552;SDS011;52465;51.560;14.368;2023-06-14T13:06:15;4.60;;;4.30;;
65552;SDS011;52465;51.560;14.368;2023-06-14T13:08:41;4.90;;;4.60;;
65552;SDS011;52465;51.560;14.368;2023-06-14T13:11:06;4.72;;;4.43;;
65552;SDS011;52465;51.560;14.368;2023-06-14T13:13:31;5.03;;;4.63;;
65552;SDS011;52465;51.560;14.368;2023-06-14T13:16:00;4.78;;;4.47;;
65552;SDS011;52465;51.560;14.368;2023-06-14T13:18:25;4.90;;;4.60;;
65552;SDS011;52465;51.560;14.368;2023-06-14T13:20:51;4.50;;;4.20;;
65552;SDS011;52465;51.560;14.368;2023-06-14T13:23:17;4.50;;;4.20;;
65552;SDS011;52465;51.560;14.368;2023-06-14T13:25:42;4.70;;;4.40;;
65552;SDS011;52465;51.560;14.368;2023-06-14T13:28:07;4.75;;;4.45;;
65552;SDS011;52465;51.560;14.368;2023-06-14T13:30:33;4.50;;;4.20;;
65552;SDS011;52465;51.560;14.368;2023-06-14T13:32:59;4.47;;;4.18;;
65552;SDS011;52465;51.560;14.368;2023-06-14T13:35:25;4.50;;;4.20;;
65552;SDS011;52465;51.560;14.368;2023-06-14T13:37:50;4.80;;;4.50;;
65552;SDS011;52465;51.560;14.368;2023-06-14T13:40:16;4.50;;;4.20;;
65552;SDS011;52465;51.560;14.368;2023-06-14T13:42:41;4.60;;;4.30;;
65552;SDS011;52465;51.560;14.368;2023-06-14T13:45:07;4.90;;;4.55;;
65552;SDS011;52465;51.560;14.368;2023-06-14T13:47:33;4.50;;;4.20;;
65552;SDS011;52465;51.560;14.368;2023-06-14T13:49:59;4.50;;;4.20;;
65552;SDS011;52465;51.560;14.368;2023-06-14T13:52:25;4.68;;;4.38;;
65552;SDS011;52465;51.560;14.368;2023-06-14T13:54:51;4.53;;;4.22;;
65552;SDS011;52465;51.560;14.368;2023-06-14T13:57:16;4.60;;;4.30;;
65552;SDS011;52465;51.560;14.368;2023-06-14T13:59:42;4.50;;;4.20;;
65552;SDS011;52465;51.560;14.368;2023-06-14T14:02:13;4.35;;;4.05;;
65552;SDS011;52465;51.560;14.368;2023-06-14T14:04:39;4.70;;;4.40;;
65552;SDS011;52465;51.560;14.368;2023-06-14T14:07:05;4.60;;;4.30;;
65552;SDS011;52465;51.560;14.368;2023-06-14T14:09:31;4.40;;;4.10;;
65552;SDS011;52465;51.560;14.368;2023-06-14T14:11:58;4.45;;;4.15;;
65552;SDS011;52465;51.560;14.368;2023-06-14T14:14:23;4.40;;;4.13;;
65552;SDS011;52465;51.560;14.368;2023-06-14T14:16:49;4.80;;;4.50;;
65552;SDS011;52465;51.560;14.368;2023-06-14T14:19:16;4.30;;;4.00;;
65552;SDS011;52465;51.560;14.368;2023-06-14T14:21:43;4.55;;;4.25;;
65552;SDS011;52465;51.560;14.368;2023-06-14T14:26:22;4.40;;;4.10;;
65552;SDS011;52465;51.560;14.368;2023-06-14T14:28:48;4.32;;;4.03;;
65552;SDS011;52465;51.560;14.368;2023-06-14T14:31:13;4.68;;;4.38;;
65552;SDS011;52465;51.560;14.368;2023-06-14T14:33:39;4.30;;;4.10;;
65552;SDS011;52465;51.560;14.368;2023-06-14T14:36:04;4.15;;;3.95;;
65552;SDS011;52465;51.560;14.368;2023-06-14T14:38:32;4.60;;;4.30;;
65552;SDS011;52465;51.560;14.368;2023-06-14T14:40:57;4.25;;;3.95;;
65552;SDS011;52465;51.560;14.368;2023-06-14T14:43:22;4.70;;;4.40;;
65552;SDS011;52465;51.560;14.368;2023-06-14T14:45:48;4.72;;;4.43;;
65552;SDS011;52465;51.560;14.368;2023-06-14T14:48:14;4.43;;;4.13;;
65552;SDS011;52465;51.560;14.368;2023-06-14T14:50:39;4.72;;;4.32;;
65552;SDS011;52465;51.560;14.368;2023-06-14T14:53:05;4.30;;;4.00;;
65552;SDS011;52465;51.560;14.368;2023-06-14T14:55:31;4.20;;;4.00;;
65552;SDS011;52465;51.560;14.368;2023-06-14T14:57:59;4.50;;;4.20;;
65552;SDS011;52465;51.560;14.368;2023-06-14T15:00:25;4.10;;;3.90;;
65552;SDS011;52465;51.560;14.368;2023-06-14T15:02:50;4.57;;;4.28;;
65552;SDS011;52465;51.560;14.368;2023-06-14T15:05:15;4.70;;;4.40;;
65552;SDS011;52465;51.560;14.368;2023-06-14T15:07:41;4.35;;;4.05;;
65552;SDS011;52465;51.560;14.368;2023-06-14T15:10:06;4.50;;;4.30;;
65552;SDS011;52465;51.560;14.368;2023-06-14T15:12:33;4.60;;;4.30;;
65552;SDS011;52465;51.560;14.368;2023-06-14T15:14:59;4.53;;;4.22;;
65552;SDS011;52465;51.560;14.368;2023-06-14T15:17:24;4.63;;;4.30;;
65552;SDS011;52465;51.560;14.368;2023-06-14T15:19:50;4.57;;;4.28;;
65552;SDS011;52465;51.560;14.368;2023-06-14T15:22:15;4.00;;;3.80;;